Time;durP1;ratioP1;P1;durP2;ratioP2;P2;SDS_P1;SDS_P2;PMS_P1;PMS_P2;Temp;Humidity;BMP_temperature;BMP_pressure;BME280_temperature;BME280_humidity;BME280_pressure;Samples;Min_cycle;Max_cycle;Signal;HPM_P1;HPM_P2
2022/09/24 00:01:32;;;;;;;;;;;;;;;15.52;57.96;95147.22;5063937;28;20013;-71
2022/09/24 00:04:03;;;;;;;;;;;;;;;15.54;58.29;95147.63;5072426;28;20013;-71
2022/09/24 00:06:29;;;;;;;;;;;;;;;15.57;58.10;95148.88;5071895;28;20013;-72
2022/09/24 00:08:55;;;;;;;;;;;;;;;15.61;58.08;95144.44;5071658;28;20010;-71
2022/09/24 00:11:20;;;;;;;;;;;;;;;15.63;58.08;95139.53;5071564;28;20023;-71
2022/09/24 00:13:47;;;;;;;;;;;;;;;15.68;58.09;95141.19;5069621;28;20062;-71
2022/09/24 00:16:13;;;;;;;;;;;;;;;15.74;57.68;95135.28;5086347;28;20092;-71
2022/09/24 00:18:39;;;;;;;;;;;;;;;15.82;57.83;95141.66;5070451;28;20499;-71
2022/09/24 00:21:10;;;;;;;;;;;;;;;15.87;57.33;95146.78;5071763;28;20014;-71
2022/09/24 00:23:35;;;;;;;;;;;;;;;15.91;57.48;95150.34;5069862;28;20013;-71
2022/09/24 00:28:48;;;;;;;;;;;;;;;16.03;57.08;95136.91;5069751;28;20020;-72
2022/09/24 00:31:13;;;;;;;;;;;;;;;16.02;57.49;95140.72;5070741;28;20031;-71
2022/09/24 00:33:38;;;;;;;;;;;;;;;16.06;57.40;95136.22;5071634;28;20470;-71
2022/09/24 00:36:04;;;;;;;;;;;;;;;16.10;57.20;95139.81;5069492;28;20010;-71
2022/09/24 00:38:30;;;;;;;;;;;;;;;16.15;56.92;95136.09;5067867;28;20020;-71
2022/09/24 00:40:55;;;;;;;;;;;;;;;16.16;56.96;95134.19;5063612;28;20009;-73
2022/09/24 00:43:33;;;;;;;;;;;;;;;16.18;56.97;95134.66;5071210;28;20036;-71
2022/09/24 00:46:18;;;;;;;;;;;;;;;16.17;56.71;95131.16;5063536;28;20044;-71
2022/09/24 00:48:45;;;;;;;;;;;;;;;16.11;56.55;95127.94;5058305;28;20009;-72
2022/09/24 00:51:14;;;;;;;;;;;;;;;16.07;56.79;95123.59;5072318;28;20096;-71
2022/09/24 00:53:40;;;;;;;;;;;;;;;16.02;56.79;95123.81;5070675;28;20055;-71
2022/09/24 00:56:07;;;;;;;;;;;;;;;15.98;56.95;95122.97;5069826;28;20056;-71
2022/09/24 00:58:32;;;;;;;;;;;;;;;15.92;57.06;95129.66;5071237;28;20025;-72
2022/09/24 01:01:01;;;;;;;;;;;;;;;15.86;57.35;95121.06;5069109;28;20013;-71
2022/09/24 01:03:27;;;;;;;;;;;;;;;15.83;57.29;95108.34;5071729;28;20005;-72
2022/09/24 01:05:54;;;;;;;;;;;;;;;15.82;57.62;95112.94;5070489;28;20889;-72
2022/09/24 01:08:20;;;;;;;;;;;;;;;15.80;57.55;95112.47;5069262;28;20013;-71
2022/09/24 01:10:51;;;;;;;;;;;;;;;15.80;57.75;95104.41;5068137;28;20013;-69
2022/09/24 01:13:23;;;;;;;;;;;;;;;15.79;57.73;95102.88;5071562;28;20103;-67
2022/09/24 01:16:28;;;;;;;;;;;;;;;15.80;58.03;95096.38;5065731;28;20009;-67
2022/09/24 01:19:14;;;;;;;;;;;;;;;15.80;57.93;95100.97;5063062;28;20113;-70
2022/09/24 01:21:49;;;;;;;;;;;;;;;15.81;58.04;95097.16;5054792;28;20018;-69
2022/09/24 01:24:25;;;;;;;;;;;;;;;15.78;57.83;95103.22;5068895;28;20072;-68
2022/09/24 01:26:54;;;;;;;;;;;;;;;15.74;58.03;95095.03;5066021;28;20010;-69
2022/09/24 01:29:40;;;;;;;;;;;;;;;15.71;58.16;95087.66;5057386;28;20013;-70
2022/09/24 01:32:24;;;;;;;;;;;;;;;15.66;58.29;95087.13;5069214;28;20020;-69
2022/09/24 01:34:57;;;;;;;;;;;;;;;15.57;58.52;95090.69;5069626;28;20022;-69
2022/09/24 01:37:25;;;;;;;;;;;;;;;15.54;58.45;95085.97;5070448;28;20018;-68
2022/09/24 01:39:51;;;;;;;;;;;;;;;15.56;58.46;95082.97;5069373;28;20447;-70
2022/09/24 01:42:17;;;;;;;;;;;;;;;15.49;59.02;95080.84;5071842;28;20035;-69
2022/09/24 01:44:43;;;;;;;;;;;;;;;15.51;58.80;95077.84;5068904;28;20013;-69
2022/09/24 01:47:11;;;;;;;;;;;;;;;15.52;58.75;95079.41;5070765;28;20017;-69
2022/09/24 01:49:36;;;;;;;;;;;;;;;15.55;58.89;95073.34;5070590;28;20025;-69
2022/09/24 01:52:04;;;;;;;;;;;;;;;15.59;58.85;95072.34;5071820;28;20261;-69
2022/09/24 01:54:38;;;;;;;;;;;;;;;15.66;58.49;95066.47;5068957;28;20048;-69
2022/09/24 01:57:22;;;;;;;;;;;;;;;15.71;58.68;95074.25;5069576;28;20073;-69
2022/09/24 01:59:51;;;;;;;;;;;;;;;15.73;58.62;95064.00;5066874;28;20021;-69
2022/09/24 02:02:26;;;;;;;;;;;;;;;15.76;58.57;95065.19;5069979;28;20036;-69
2022/09/24 02:04:55;;;;;;;;;;;;;;;15.78;58.30;95061.06;5069165;28;20005;-69
2022/09/24 02:07:29;;;;;;;;;;;;;;;15.79;58.49;95067.22;5068667;28;20553;-70
2022/09/24 02:09:55;;;;;;;;;;;;;;;15.80;58.58;95060.72;5068509;28;20009;-70
2022/09/24 02:12:28;;;;;;;;;;;;;;;15.79;58.41;95061.84;5069352;28;20032;-69
2022/09/24 02:14:56;;;;;;;;;;;;;;;15.76;58.13;95055.25;5069157;28;20005;-70
2022/09/24 02:17:22;;;;;;;;;;;;;;;15.73;58.38;95050.59;5069685;28;20056;-69
2022/09/24 02:19:48;;;;;;;;;;;;;;;15.73;58.39;95045.22;5069524;28;20024;-69
2022/09/24 02:22:16;;;;;;;;;;;;;;;15.78;58.52;95039.63;5070909;28;20006;-70
2022/09/24 02:24:44;;;;;;;;;;;;;;;15.84;58.43;95053.56;5068744;28;20078;-70
2022/09/24 02:27:09;;;;;;;;;;;;;;;15.92;58.06;95046.50;5068812;28;20017;-69
2022/09/24 02:29:34;;;;;;;;;;;;;;;15.93;58.15;95042.72;5068035;28;20017;-69
2022/09/24 02:32:02;;;;;;;;;;;;;;;15.91;58.13;95042.25;5063587;28;20524;-70
2022/09/24 02:34:30;;;;;;;;;;;;;;;15.89;57.72;95033.78;5083468;22;20124;-65
2022/09/24 02:37:14;;;;;;;;;;;;;;;15.84;58.05;95040.94;5068586;28;20070;-65
2022/09/24 02:39:40;;;;;;;;;;;;;;;15.79;57.99;95037.72;5068412;28;20083;-65
2022/09/24 02:42:06;;;;;;;;;;;;;;;15.74;58.17;95041.41;5067506;28;20539;-65
2022/09/24 02:44:32;;;;;;;;;;;;;;;15.76;58.53;95039.16;5064497;28;20458;-65
2022/09/24 02:46:58;;;;;;;;;;;;;;;15.80;58.35;95042.72;5065778;28;20013;-65
2022/09/24 02:49:23;;;;;;;;;;;;;;;15.80;58.20;95031.22;5068658;28;20012;-65
2022/09/24 02:51:49;;;;;;;;;;;;;;;15.84;58.24;95030.22;5069206;28;20049;-65
2022/09/24 02:54:14;;;;;;;;;;;;;;;15.85;58.69;95029.09;5068892;28;20015;-65
2022/09/24 02:56:40;;;;;;;;;;;;;;;15.89;58.47;95029.19;5069784;28;20001;-65
2022/09/24 02:59:05;;;;;;;;;;;;;;;15.93;57.99;95030.09;5068509;28;20013;-65
2022/09/24 03:01:30;;;;;;;;;;;;;;;15.96;58.17;95021.34;5067707;28;20013;-65
2022/09/24 03:03:56;;;;;;;;;;;;;;;16.00;58.07;95019.53;5068732;28;20044;-65
2022/09/24 03:06:23;;;;;;;;;;;;;;;16.05;57.67;95015.84;5069462;28;20048;-65
2022/09/24 03:08:49;;;;;;;;;;;;;;;16.09;57.63;95019.41;5067292;28;20055;-65
2022/09/24 03:11:15;;;;;;;;;;;;;;;16.14;57.52;95024.53;5069055;28;20420;-65
2022/09/24 03:13:40;;;;;;;;;;;;;;;16.19;57.54;95024.28;5069819;28;20060;-66
2022/09/24 03:16:06;;;;;;;;;;;;;;;16.19;57.36;95029.66;5067158;28;20009;-65
2022/09/24 03:18:32;;;;;;;;;;;;;;;16.21;57.27;95019.34;5068236;28;20024;-66
2022/09/24 03:21:01;;;;;;;;;;;;;;;16.24;57.26;95021.34;5069576;28;20006;-66
2022/09/24 03:23:27;;;;;;;;;;;;;;;16.30;57.04;95029.94;5068590;28;20014;-65
2022/09/24 03:25:53;;;;;;;;;;;;;;;16.33;57.13;95027.34;5068526;28;20016;-66
2022/09/24 03:28:18;;;;;;;;;;;;;;;16.37;57.04;95022.84;5068040;28;20570;-66
2022/09/24 03:30:58;;;;;;;;;;;;;;;16.40;56.93;95029.44;5066500;28;20010;-66
2022/09/24 03:33:26;;;;;;;;;;;;;;;16.43;56.79;95023.41;5069390;28;20009;-66
2022/09/24 03:35:59;;;;;;;;;;;;;;;16.48;56.75;95025.84;5066583;28;20098;-68
2022/09/24 03:38:24;;;;;;;;;;;;;;;16.52;56.56;95021.31;5067814;28;20013;-66
2022/09/24 03:40:49;;;;;;;;;;;;;;;16.56;56.47;95019.50;5068490;28;20131;-66
2022/09/24 03:43:14;;;;;;;;;;;;;;;16.59;56.27;95023.44;5069311;28;20374;-66
2022/09/24 03:45:40;;;;;;;;;;;;;;;16.61;56.20;95027.31;5067044;28;20079;-66
2022/09/24 03:48:05;;;;;;;;;;;;;;;16.63;56.11;95022.41;5067120;28;20534;-66
2022/09/24 03:50:30;;;;;;;;;;;;;;;16.68;56.14;95031.31;5066608;28;20013;-67
2022/09/24 03:52:56;;;;;;;;;;;;;;;16.73;55.99;95017.66;5068476;28;20009;-66
2022/09/24 03:55:21;;;;;;;;;;;;;;;16.74;56.04;95013.84;5069273;28;20373;-66
2022/09/24 03:57:46;;;;;;;;;;;;;;;16.81;55.85;95012.13;5071428;28;20013;-66
2022/09/24 04:00:12;;;;;;;;;;;;;;;16.86;55.72;95008.38;5071469;28;20009;-65
2022/09/24 04:02:37;;;;;;;;;;;;;;;16.91;55.72;95002.75;5070502;28;20028;-66
2022/09/24 04:05:03;;;;;;;;;;;;;;;16.95;55.46;95011.69;5072332;28;20004;-67
2022/09/24 04:07:28;;;;;;;;;;;;;;;17.01;55.23;95001.47;5072350;28;20017;-66
2022/09/24 04:09:53;;;;;;;;;;;;;;;17.04;55.18;95006.91;5070651;28;20038;-66
2022/09/24 04:12:19;;;;;;;;;;;;;;;17.04;55.14;94990.78;5072632;28;20005;-67
2022/09/24 04:14:44;;;;;;;;;;;;;;;17.07;55.11;94995.47;5071829;28;20013;-67
2022/09/24 04:17:09;;;;;;;;;;;;;;;17.10;55.13;94989.41;5070137;28;20009;-66
2022/09/24 04:19:35;;;;;;;;;;;;;;;17.13;54.90;94987.91;5072241;28;20017;-66
2022/09/24 04:22:00;;;;;;;;;;;;;;;17.14;54.86;94982.19;5070936;28;20013;-66
2022/09/24 04:24:25;;;;;;;;;;;;;;;17.17;55.02;94983.41;5072262;28;20008;-66
2022/09/24 04:26:51;;;;;;;;;;;;;;;17.19;54.85;94985.72;5069680;28;20059;-67
2022/09/24 04:29:17;;;;;;;;;;;;;;;17.19;54.87;94985.72;5072235;28;20001;-66
2022/09/24 04:31:42;;;;;;;;;;;;;;;17.17;54.97;94993.38;5067225;28;20063;-67
2022/09/24 04:34:08;;;;;;;;;;;;;;;17.21;55.01;94986.19;5072259;28;20020;-66
2022/09/24 04:36:34;;;;;;;;;;;;;;;17.23;54.80;94987.38;5069198;28;20592;-67
2022/09/24 04:38:59;;;;;;;;;;;;;;;17.27;54.85;94985.56;5070693;28;20048;-66
2022/09/24 04:41:24;;;;;;;;;;;;;;;17.32;54.66;94990.66;5071667;28;20014;-66
2022/09/24 04:43:50;;;;;;;;;;;;;;;17.34;54.71;94993.00;5070833;28;20016;-66
2022/09/24 04:46:17;;;;;;;;;;;;;;;17.36;54.56;94991.53;5069666;28;20014;-66
2022/09/24 04:48:42;;;;;;;;;;;;;;;17.39;54.53;94982.75;5071921;28;20888;-66
2022/09/24 04:51:11;;;;;;;;;;;;;;;17.40;54.46;94986.22;5071259;28;20009;-65
2022/09/24 04:53:36;;;;;;;;;;;;;;;17.41;54.53;94980.50;5071101;28;20572;-67
2022/09/24 04:56:02;;;;;;;;;;;;;;;17.39;54.28;94979.28;5067797;28;20013;-66
2022/09/24 04:58:28;;;;;;;;;;;;;;;17.38;54.62;94977.72;5071342;28;20426;-66
2022/09/24 05:00:53;;;;;;;;;;;;;;;17.37;54.53;94974.25;5069492;28;20024;-66
2022/09/24 05:03:21;;;;;;;;;;;;;;;17.34;54.59;94972.25;5070425;28;20040;-66
2022/09/24 05:05:47;;;;;;;;;;;;;;;17.27;54.68;94965.97;5069959;28;20013;-66
2022/09/24 05:08:13;;;;;;;;;;;;;;;17.18;55.06;94970.75;5070543;28;20014;-66
2022/09/24 05:10:38;;;;;;;;;;;;;;;17.10;55.07;94967.91;5070050;28;20020;-66
2022/09/24 05:13:04;;;;;;;;;;;;;;;17.01;55.29;94967.31;5069614;28;20052;-65
2022/09/24 05:15:29;;;;;;;;;;;;;;;16.94;55.29;94969.03;5070533;28;20457;-66
2022/09/24 05:17:54;;;;;;;;;;;;;;;16.90;55.54;94971.66;5070374;28;20021;-66
2022/09/24 05:20:20;;;;;;;;;;;;;;;16.88;55.72;94966.59;5070073;28;20017;-65
2022/09/24 05:22:48;;;;;;;;;;;;;;;16.88;55.83;94973.88;5070540;28;20013;-66
2022/09/24 05:25:14;;;;;;;;;;;;;;;16.94;55.98;94971.72;5071469;28;20531;-65
2022/09/24 05:27:57;;;;;;;;;;;;;;;16.99;55.85;94974.13;5069656;28;20107;-67
2022/09/24 05:30:23;;;;;;;;;;;;;;;17.10;55.66;94967.13;5069838;28;20108;-66
2022/09/24 05:32:51;;;;;;;;;;;;;;;17.15;55.69;94967.63;5069818;28;20018;-66
2022/09/24 05:35:17;;;;;;;;;;;;;;;17.23;55.46;94970.47;5070153;28;20013;-66
2022/09/24 05:37:43;;;;;;;;;;;;;;;17.31;55.42;94975.66;5071380;28;20055;-66
2022/09/24 05:42:57;;;;;;;;;;;;;;;17.50;54.86;94972.22;5071157;28;20036;-65
2022/09/24 05:45:23;;;;;;;;;;;;;;;17.61;54.75;94975.94;5069465;28;20024;-66
2022/09/24 05:47:48;;;;;;;;;;;;;;;17.76;54.49;94970.84;5068764;28;20009;-66
2022/09/24 05:50:13;;;;;;;;;;;;;;;17.89;54.18;94978.44;5069613;28;20363;-65
2022/09/24 05:52:39;;;;;;;;;;;;;;;18.07;53.97;94980.72;5069575;28;20486;-66
2022/09/24 05:55:05;;;;;;;;;;;;;;;18.23;53.55;94975.25;5068328;28;20039;-66
2022/09/24 05:57:30;;;;;;;;;;;;;;;18.40;53.14;94978.25;5069699;28;20091;-66
2022/09/24 05:59:55;;;;;;;;;;;;;;;18.59;52.69;94977.44;5068533;28;20378;-66
2022/09/24 06:02:20;;;;;;;;;;;;;;;18.72;52.71;94972.66;5068158;28;20064;-67
2022/09/24 06:04:45;;;;;;;;;;;;;;;18.74;51.73;94970.41;5068795;28;20066;-66
2022/09/24 06:07:11;;;;;;;;;;;;;;;18.62;51.44;94976.72;5085684;28;20484;-65
2022/09/24 06:09:36;;;;;;;;;;;;;;;18.69;51.90;94976.88;5068368;28;20359;-68
2022/09/24 06:12:01;;;;;;;;;;;;;;;18.81;51.88;94978.59;5070467;28;20009;-65
2022/09/24 06:14:27;;;;;;;;;;;;;;;18.95;51.83;94975.38;5069051;28;20016;-67
2022/09/24 06:16:52;;;;;;;;;;;;;;;19.11;51.31;94977.94;5069259;28;20382;-67
2022/09/24 06:19:17;;;;;;;;;;;;;;;19.27;50.90;94981.25;5067203;28;20009;-67
2022/09/24 06:21:42;;;;;;;;;;;;;;;19.42;50.46;94976.84;5070297;28;20013;-66
2022/09/24 06:24:08;;;;;;;;;;;;;;;19.62;50.30;94983.69;5069301;28;20012;-65
2022/09/24 06:26:33;;;;;;;;;;;;;;;19.82;49.71;94984.34;5069386;28;20086;-65
2022/09/24 06:28:59;;;;;;;;;;;;;;;20.01;49.59;94983.41;5068687;28;20017;-65
2022/09/24 06:31:24;;;;;;;;;;;;;;;20.21;49.09;94984.78;5067419;28;20052;-65
2022/09/24 06:33:50;;;;;;;;;;;;;;;20.33;48.71;94983.00;5068055;28;20040;-65
2022/09/24 06:36:15;;;;;;;;;;;;;;;20.44;48.42;94986.59;5067082;28;20099;-66
2022/09/24 06:38:40;;;;;;;;;;;;;;;20.49;48.03;94983.59;5069670;28;20154;-65
2022/09/24 06:41:06;;;;;;;;;;;;;;;20.53;48.08;94978.22;5066642;28;20013;-66
2022/09/24 06:43:32;;;;;;;;;;;;;;;20.55;48.09;94982.09;5048889;28;20377;-66
2022/09/24 06:45:58;;;;;;;;;;;;;;;20.54;47.75;94988.66;5060488;28;20507;-66
2022/09/24 06:48:25;;;;;;;;;;;;;;;20.57;47.74;94985.19;5064239;28;20497;-66
2022/09/24 06:50:50;;;;;;;;;;;;;;;20.59;47.81;94992.94;5078057;28;20013;-66
2022/09/24 06:53:15;;;;;;;;;;;;;;;20.63;47.78;94999.94;5069970;28;20031;-66
2022/09/24 06:55:41;;;;;;;;;;;;;;;20.70;47.62;94997.31;5067855;28;20014;-65
2022/09/24 06:58:07;;;;;;;;;;;;;;;20.74;47.44;94995.41;5064847;28;20010;-65
2022/09/24 07:00:33;;;;;;;;;;;;;;;20.81;47.19;94999.31;5069314;28;20013;-67
2022/09/24 07:02:58;;;;;;;;;;;;;;;20.92;47.20;95005.59;5062175;28;20154;-67
2022/09/24 07:05:23;;;;;;;;;;;;;;;20.93;47.09;95002.50;5068377;28;20095;-66
2022/09/24 07:07:48;;;;;;;;;;;;;;;20.91;47.22;95007.53;5067248;28;20035;-66
2022/09/24 07:10:16;;;;;;;;;;;;;;;20.87;46.99;95001.31;5066637;28;20016;-66
2022/09/24 07:12:41;;;;;;;;;;;;;;;20.80;46.98;95003.97;5068963;28;20017;-65
2022/09/24 07:15:06;;;;;;;;;;;;;;;20.70;46.97;95002.72;5069528;28;20013;-65
2022/09/24 07:17:32;;;;;;;;;;;;;;;20.70;47.28;95001.94;5068287;28;20013;-66
2022/09/24 07:19:57;;;;;;;;;;;;;;;20.67;47.62;94997.25;5058393;28;20021;-64
2022/09/24 07:22:22;;;;;;;;;;;;;;;20.64;47.62;95009.59;5062554;28;20019;-67
2022/09/24 07:24:48;;;;;;;;;;;;;;;20.61;47.64;95009.56;5063993;28;20013;-67
2022/09/24 07:27:13;;;;;;;;;;;;;;;20.61;47.76;95007.63;5059459;28;20021;-66
2022/09/24 07:29:39;;;;;;;;;;;;;;;20.64;47.70;95009.59;5064701;28;20036;-63
2022/09/24 07:32:04;;;;;;;;;;;;;;;20.62;47.76;95017.28;5070219;28;20009;-66
2022/09/24 07:34:29;;;;;;;;;;;;;;;20.59;47.98;95012.63;5069757;28;20128;-67
2022/09/24 07:36:55;;;;;;;;;;;;;;;20.58;48.13;95018.44;5072191;28;20062;-63
2022/09/24 07:39:21;;;;;;;;;;;;;;;20.60;48.01;95027.69;5070804;28;20122;-64
2022/09/24 07:41:46;;;;;;;;;;;;;;;20.65;48.11;95027.38;5071162;28;20907;-63
2022/09/24 07:44:11;;;;;;;;;;;;;;;20.67;48.25;95022.34;5072026;28;20514;-64
2022/09/24 07:46:36;;;;;;;;;;;;;;;20.79;48.05;95023.25;5069848;28;20019;-64
2022/09/24 07:49:02;;;;;;;;;;;;;;;20.91;47.95;95028.38;5070693;28;20063;-67
2022/09/24 07:51:27;;;;;;;;;;;;;;;21.09;47.31;95031.22;5071126;28;20009;-65
2022/09/24 07:53:53;;;;;;;;;;;;;;;21.25;47.50;95040.66;5067830;28;20009;-66
2022/09/24 07:56:18;;;;;;;;;;;;;;;21.14;47.46;95039.81;5066057;28;20020;-66
2022/09/24 07:58:44;;;;;;;;;;;;;;;20.73;48.24;95042.53;5070296;28;20020;-66
2022/09/24 08:01:09;;;;;;;;;;;;;;;19.57;51.38;95048.72;5071738;28;20370;-66
2022/09/24 08:03:35;;;;;;;;;;;;;;;19.41;51.82;95048.13;5071365;28;20013;-66
2022/09/24 08:06:02;;;;;;;;;;;;;;;19.78;51.76;95047.50;5068921;28;20009;-67
2022/09/24 08:08:27;;;;;;;;;;;;;;;20.43;50.79;95052.59;5071450;28;20013;-64
2022/09/24 08:10:53;;;;;;;;;;;;;;;20.82;49.99;95047.59;5068645;28;20423;-63
2022/09/24 08:13:18;;;;;;;;;;;;;;;20.60;50.03;95054.72;5072061;28;20009;-63
2022/09/24 08:15:43;;;;;;;;;;;;;;;20.23;51.10;95058.13;5069716;28;20017;-65
2022/09/24 08:18:09;;;;;;;;;;;;;;;20.47;50.91;95054.22;5069817;28;20013;-66
2022/09/24 08:20:35;;;;;;;;;;;;;;;20.61;50.38;95048.16;5070530;28;20013;-65
2022/09/24 08:23:01;;;;;;;;;;;;;;;20.80;50.12;95049.91;5072501;28;20012;-65
2022/09/24 08:25:26;;;;;;;;;;;;;;;20.98;50.01;95047.38;5069088;28;20104;-65
2022/09/24 08:27:52;;;;;;;;;;;;;;;20.87;49.96;95039.16;5071477;28;20108;-64
2022/09/24 08:30:17;;;;;;;;;;;;;;;20.80;50.26;95044.50;5069658;28;20013;-65
2022/09/24 08:32:47;;;;;;;;;;;;;;;20.47;51.24;95048.81;5071508;28;20074;-64
2022/09/24 08:35:14;;;;;;;;;;;;;;;20.72;50.51;95057.16;5070187;28;20017;-64
2022/09/24 08:37:39;;;;;;;;;;;;;;;20.93;50.34;95056.59;5072345;28;20037;-64
2022/09/24 08:40:05;;;;;;;;;;;;;;;20.93;50.45;95056.59;5050636;22;20056;-71
2022/09/24 08:42:38;;;;;;;;;;;;;;;21.16;50.14;95055.66;5049626;28;20014;-71
2022/09/24 08:47:51;;;;;;;;;;;;;;;21.05;50.18;95046.66;5013330;28;20466;-71
2022/09/24 08:50:22;;;;;;;;;;;;;;;20.87;50.60;95049.97;5024087;28;20010;-71
2022/09/24 08:52:53;;;;;;;;;;;;;;;20.73;50.60;95047.16;5050895;28;20010;-72
2022/09/24 08:55:20;;;;;;;;;;;;;;;20.26;52.31;95048.50;5047107;28;20505;-71
2022/09/24 08:58:04;;;;;;;;;;;;;;;20.47;52.59;95056.09;5040459;28;20021;-73
2022/09/24 09:00:33;;;;;;;;;;;;;;;20.69;51.47;95063.31;5029330;28;20148;-71
2022/09/24 09:03:15;;;;;;;;;;;;;;;21.27;50.72;95068.09;5030854;28;20016;-72
2022/09/24 09:05:59;;;;;;;;;;;;;;;21.78;49.63;95063.88;5049562;28;20014;-72
2022/09/24 09:08:29;;;;;;;;;;;;;;;22.14;48.14;95064.88;5046695;28;20097;-71
2022/09/24 09:10:57;;;;;;;;;;;;;;;22.42;47.63;95063.44;5031098;28;20482;-71
2022/09/24 09:13:44;;;;;;;;;;;;;;;22.58;47.09;95069.31;5030633;28;20014;-75
2022/09/24 09:16:28;;;;;;;;;;;;;;;22.88;46.79;95066.34;5039644;28;20033;-71
2022/09/24 09:18:57;;;;;;;;;;;;;;;22.96;45.32;95077.97;5031155;28;20014;-74
2022/09/24 09:21:30;;;;;;;;;;;;;;;23.07;45.87;95078.75;5041353;28;20018;-74
2022/09/24 09:23:56;;;;;;;;;;;;;;;23.18;45.53;95067.91;5043002;28;20485;-74
2022/09/24 09:26:21;;;;;;;;;;;;;;;23.23;44.74;95073.72;5049548;28;20016;-73
2022/09/24 09:28:47;;;;;;;;;;;;;;;23.16;44.21;95067.53;5032926;28;20044;-72
2022/09/24 09:31:24;;;;;;;;;;;;;;;23.24;44.16;95066.38;5039262;28;20394;-71
2022/09/24 09:33:49;;;;;;;;;;;;;;;23.11;44.10;95078.75;5011883;28;20035;-74
2022/09/24 09:36:34;;;;;;;;;;;;;;;21.79;46.04;95076.25;5035167;28;20010;-70
2022/09/24 09:39:21;;;;;;;;;;;;;;;20.98;47.80;95079.81;5047646;28;20021;-70
2022/09/24 09:41:51;;;;;;;;;;;;;;;20.77;48.91;95081.16;5051475;28;20016;-70
2022/09/24 09:44:25;;;;;;;;;;;;;;;20.19;50.65;95088.94;5047256;28;20049;-70
2022/09/24 09:46:52;;;;;;;;;;;;;;;18.15;56.08;95092.78;5034466;28;20018;-69
2022/09/24 09:49:17;;;;;;;;;;;;;;;18.55;56.10;95100.50;5030544;28;20057;-74
2022/09/24 09:51:45;;;;;;;;;;;;;;;18.78;55.63;95084.41;5049033;28;20486;-78
2022/09/24 09:54:10;;;;;;;;;;;;;;;19.55;54.26;95083.41;5051010;28;20010;-78
2022/09/24 09:56:37;;;;;;;;;;;;;;;18.61;56.90;95095.59;5031686;28;20010;-73
2022/09/24 09:59:11;;;;;;;;;;;;;;;18.42;57.59;95091.00;5035929;28;20010;-74
2022/09/24 10:01:40;;;;;;;;;;;;;;;18.99;57.22;95085.91;5035845;28;20056;-72
2022/09/24 10:04:22;;;;;;;;;;;;;;;18.64;57.69;95095.69;5030110;28;20010;-71
2022/09/24 10:06:47;;;;;;;;;;;;;;;19.20;56.53;95092.47;5030813;28;20010;-72
2022/09/24 10:09:18;;;;;;;;;;;;;;;19.60;55.34;95088.50;5035228;28;20029;-75
2022/09/24 10:11:44;;;;;;;;;;;;;;;19.26;56.73;95090.25;5031093;28;20067;-74
2022/09/24 10:14:10;;;;;;;;;;;;;;;18.60;59.34;95094.84;5034186;28;20545;-73
2022/09/24 10:16:37;;;;;;;;;;;;;;;19.02;58.15;95096.00;5048458;28;20017;-75
2022/09/24 10:19:03;;;;;;;;;;;;;;;18.77;58.54;95092.84;5048108;28;20156;-74
2022/09/24 10:21:33;;;;;;;;;;;;;;;19.92;56.11;95083.59;5028080;28;20484;-75
2022/09/24 10:23:59;;;;;;;;;;;;;;;19.41;56.15;95086.66;5039663;28;20021;-73
2022/09/24 10:26:38;;;;;;;;;;;;;;;19.43;56.95;95087.06;5047096;28;20017;-74
2022/09/24 10:31:50;;;;;;;;;;;;;;;17.91;62.21;95093.78;5029114;28;20294;-72
2022/09/24 10:34:23;;;;;;;;;;;;;;;17.59;64.38;95091.13;5027054;28;20097;-72
2022/09/24 10:36:50;;;;;;;;;;;;;;;18.34;63.24;95100.09;5035004;28;20432;-74
2022/09/24 10:39:15;;;;;;;;;;;;;;;18.50;62.66;95092.72;5033766;28;20072;-74
2022/09/24 10:41:46;;;;;;;;;;;;;;;18.89;62.88;95093.47;5027756;28;20014;-73
2022/09/24 10:44:12;;;;;;;;;;;;;;;19.31;62.27;95095.34;5028850;28;20104;-75
2022/09/24 10:46:37;;;;;;;;;;;;;;;18.80;62.12;95089.47;5029222;28;20116;-73
2022/09/24 10:49:17;;;;;;;;;;;;;;;19.32;62.18;95082.66;5034154;28;20009;-75
2022/09/24 10:51:53;;;;;;;;;;;;;;;19.42;60.94;95084.72;5030292;28;20080;-73
2022/09/24 10:54:39;;;;;;;;;;;;;;;19.95;61.02;95088.22;5041892;28;20027;-71
2022/09/24 10:57:42;;;;;;;;;;;;;;;20.28;60.24;95096.78;5043558;28;20009;-71
2022/09/24 11:00:16;;;;;;;;;;;;;;;20.60;59.88;95099.88;5010456;28;20062;-73
2022/09/24 11:02:59;;;;;;;;;;;;;;;20.50;58.70;95095.91;5005643;28;20011;-69
2022/09/24 11:05:30;;;;;;;;;;;;;;;20.37;58.84;95100.75;5019762;28;20028;-71
2022/09/24 11:08:00;;;;;;;;;;;;;;;19.91;58.14;95090.13;5031425;28;20120;-69
2022/09/24 11:10:29;;;;;;;;;;;;;;;19.80;58.42;95091.88;5042945;28;20014;-70
2022/09/24 11:13:12;;;;;;;;;;;;;;;19.67;59.75;95096.72;5022876;28;20065;-72
2022/09/24 11:15:57;;;;;;;;;;;;;;;20.05;58.73;95092.22;5030876;28;20029;-71
2022/09/24 11:18:33;;;;;;;;;;;;;;;20.39;57.28;95092.28;5025459;28;20018;-71
2022/09/24 11:21:17;;;;;;;;;;;;;;;20.67;56.93;95087.22;5028746;28;20779;-68
2022/09/24 11:23:55;;;;;;;;;;;;;;;20.93;55.64;95088.25;5026108;28;20067;-70
2022/09/24 11:26:40;;;;;;;;;;;;;;;21.28;55.97;95083.19;5027421;28;20397;-69
2022/09/24 11:29:24;;;;;;;;;;;;;;;21.47;55.03;95082.22;5016846;28;20059;-72
2022/09/24 11:31:55;;;;;;;;;;;;;;;21.56;53.82;95084.59;5030280;28;20017;-73
2022/09/24 11:34:27;;;;;;;;;;;;;;;21.67;54.17;95085.47;5035180;28;20624;-72
2022/09/24 11:37:01;;;;;;;;;;;;;;;21.77;52.92;95075.84;5036891;28;20010;-73
2022/09/24 11:39:35;;;;;;;;;;;;;;;21.94;52.83;95069.00;5034633;28;20018;-73
2022/09/24 11:42:19;;;;;;;;;;;;;;;21.12;54.32;95076.47;5032348;28;20410;-73
2022/09/24 11:44:44;;;;;;;;;;;;;;;20.67;55.93;95072.94;5016988;28;20449;-72
2022/09/24 11:47:12;;;;;;;;;;;;;;;20.88;55.54;95077.78;5035456;28;20057;-72
2022/09/24 11:49:56;;;;;;;;;;;;;;;20.82;55.40;95071.94;5037861;28;20010;-72
2022/09/24 11:52:39;;;;;;;;;;;;;;;21.98;53.58;95065.16;5027924;28;20014;-70
2022/09/24 11:55:33;;;;;;;;;;;;;;;21.86;52.41;95067.41;5037604;28;20064;-71
2022/09/24 11:58:19;;;;;;;;;;;;;;;22.28;52.20;95070.38;5040940;28;20018;-72
2022/09/24 12:01:05;;;;;;;;;;;;;;;21.27;54.40;95078.16;5045192;28;20118;-71
2022/09/24 12:03:38;;;;;;;;;;;;;;;21.21;54.34;95082.34;5048007;28;20014;-71
2022/09/24 12:06:30;;;;;;;;;;;;;;;21.10;55.34;95076.84;5038492;28;20013;-70
2022/09/24 12:09:00;;;;;;;;;;;;;;;21.10;55.14;95082.25;5041080;28;20477;-72
2022/09/24 12:11:45;;;;;;;;;;;;;;;21.07;54.97;95077.59;5026587;28;20104;-71
2022/09/24 12:14:31;;;;;;;;;;;;;;;21.29;55.26;95076.66;5036154;28;20527;-71
2022/09/24 12:17:00;;;;;;;;;;;;;;;20.63;56.42;95081.03;5035407;28;20010;-72
2022/09/24 12:19:28;;;;;;;;;;;;;;;19.69;59.27;95072.06;5021768;28;20018;-73
2022/09/24 12:21:54;;;;;;;;;;;;;;;20.30;57.38;95068.25;5022984;28;20504;-72
2022/09/24 12:24:26;;;;;;;;;;;;;;;20.29;57.48;95071.31;5031296;28;20017;-72
2022/09/24 12:26:52;;;;;;;;;;;;;;;20.92;56.77;95067.78;5032834;28;20014;-73
2022/09/24 12:35:29;;;;;;;;;;;;;;;22.39;53.30;95053.38;5036139;28;20045;-72
2022/09/24 12:38:11;;;;;;;;;;;;;;;22.70;52.59;95055.41;5031881;28;20013;-71
2022/09/24 12:40:55;;;;;;;;;;;;;;;23.10;51.66;95042.72;5031243;28;20060;-73
2022/09/24 12:43:28;;;;;;;;;;;;;;;23.05;49.94;95043.09;5035840;28;20020;-73
2022/09/24 12:45:58;;;;;;;;;;;;;;;23.38;50.27;95036.50;5043339;28;20100;-71
2022/09/24 12:48:24;;;;;;;;;;;;;;;23.35;48.98;95040.03;5028425;28;20374;-70
2022/09/24 12:50:59;;;;;;;;;;;;;;;23.18;48.94;95036.13;5032438;28;20002;-70
2022/09/24 12:53:28;;;;;;;;;;;;;;;23.32;49.27;95041.56;5030898;28;20009;-71
2022/09/24 12:55:57;;;;;;;;;;;;;;;22.26;51.31;95037.44;5027567;28;20101;-72
2022/09/24 12:58:28;;;;;;;;;;;;;;;22.31;50.67;95036.28;5027016;28;20101;-71
2022/09/24 13:01:04;;;;;;;;;;;;;;;21.94;52.16;95026.44;5012379;28;20061;-72
2022/09/24 13:03:37;;;;;;;;;;;;;;;21.76;52.33;95037.19;5012222;28;20060;-72
2022/09/24 13:06:03;;;;;;;;;;;;;;;21.80;51.68;95029.88;5018719;28;20092;-72
2022/09/24 13:08:38;;;;;;;;;;;;;;;20.56;54.85;95042.31;5031186;28;20611;-74
2022/09/24 13:11:23;;;;;;;;;;;;;;;20.41;55.15;95038.66;5030224;28;20043;-71
2022/09/24 13:13:57;;;;;;;;;;;;;;;21.55;52.66;95037.06;5030395;28;20060;-71
2022/09/24 13:16:22;;;;;;;;;;;;;;;22.42;49.97;95033.63;5030281;28;20006;-72